Terminal Aerodrome Forecast
Issued by NWS

Home | Current Version | Previous Version | Text Only | Print | Product List | Glossary Off
Versions: 1 2 3 4 5 6 7 8 9 10 11 12 13

000
FTUS45 KGGW 220520
TAFSDY
TAF
KSDY 220520Z 2206/2306 14012KT P6SM BKN030 BKN060
     FM221900 18010KT P6SM SCT080
     FM222300 21006KT P6SM SCT090=

USA.gov is the U.S. government's official web portal to all federal, state and local government web resources and services.